Time;durP1;ratioP1;P1;durP2;ratioP2;P2;SDS_P1;SDS_P2;PMS_P1;PMS_P2;Temp;Humidity;BMP_temperature;BMP_pressure;BME280_temperature;BME280_humidity;BME280_pressure;Samples;Min_cycle;Max_cycle;Signal;HPM_P1;HPM_P2
2022/03/28 00:01:54;;;;;;;15.80;9.90;;;12.10;47.30;;;12.01;40.89;95949.47;5071329;28;20470;-57
2022/03/28 00:04:21;;;;;;;14.90;10.10;;;11.90;47.60;;;11.87;41.14;95941.78;5073524;28;20879;-55
2022/03/28 00:06:48;;;;;;;13.93;9.03;;;11.80;47.80;;;11.76;41.56;95949.72;5062072;28;20526;-57
2022/03/28 00:09:15;;;;;;;23.13;8.37;;;11.70;48.50;;;11.65;41.30;95953.19;5067644;28;20455;-56
2022/03/28 00:11:43;;;;;;;21.03;8.60;;;11.50;48.10;;;11.56;41.87;95948.63;5075664;28;21435;-56
2022/03/28 00:14:10;;;;;;;13.43;8.13;;;11.50;48.70;;;11.47;41.64;95945.75;5063601;28;20465;-54
2022/03/28 00:16:37;;;;;;;13.57;8.60;;;11.40;48.60;;;11.43;41.63;95944.31;5068216;28;20478;-58
2022/03/28 00:19:06;;;;;;;14.60;8.73;;;11.30;48.80;;;11.40;41.64;95947.19;5075182;28;20485;-55
2022/03/28 00:21:33;;;;;;;13.00;8.53;;;11.30;48.90;;;11.35;41.84;95941.41;5067971;28;20483;-55
2022/03/28 00:24:01;;;;;;;14.87;8.60;;;11.20;48.90;;;11.29;41.66;95939.25;5069448;28;20585;-55
2022/03/28 00:26:28;;;;;;;11.53;6.87;;;11.20;49.00;;;11.25;42.09;95941.28;5075512;28;20462;-56
2022/03/28 00:28:55;;;;;;;14.13;8.57;;;11.10;49.00;;;11.22;42.18;95938.91;5063828;28;20458;-56
2022/03/28 00:31:23;;;;;;;12.80;8.57;;;11.10;49.10;;;11.19;42.38;95930.41;5070156;28;20537;-55
2022/03/28 00:33:50;;;;;;;21.13;9.00;;;11.00;49.50;;;11.12;42.52;95925.59;5072672;28;20870;-56
2022/03/28 00:36:19;;;;;;;11.70;7.57;;;11.00;49.60;;;11.08;42.78;95918.06;5062206;28;20462;-56
2022/03/28 00:38:46;;;;;;;16.97;9.90;;;11.00;49.90;;;11.04;42.76;95921.88;5070039;28;20620;-57
2022/03/28 00:41:14;;;;;;;12.67;7.93;;;10.90;49.80;;;11.01;43.16;95927.38;5067656;28;20855;-57
2022/03/28 00:43:54;;;;;;;21.30;8.83;;;10.90;50.30;;;10.98;42.98;95917.06;5060663;28;20553;-55
2022/03/28 00:46:22;;;;;;;14.57;9.20;;;10.90;50.00;;;10.97;42.76;95915.38;5069877;28;21011;-56
2022/03/28 00:48:49;;;;;;;14.57;8.23;;;10.80;50.00;;;10.96;43.42;95922.44;5066156;28;20844;-57
2022/03/28 00:51:18;;;;;;;17.90;9.07;;;10.80;50.30;;;10.94;42.80;95916.47;5067410;28;20782;-53
2022/03/28 00:53:46;;;;;;;13.90;8.53;;;10.80;49.90;;;10.91;43.16;95912.25;5064661;28;20462;-55
2022/03/28 00:56:13;;;;;;;16.90;8.53;;;10.80;50.10;;;10.90;43.20;95907.94;5074191;28;20462;-53
2022/03/28 00:58:41;;;;;;;14.37;8.90;;;10.80;50.60;;;10.88;42.74;95904.59;5066828;28;20923;-56
2022/03/28 01:01:09;;;;;;;14.90;8.83;;;10.80;49.90;;;10.86;43.02;95908.28;5071964;28;20485;-55
2022/03/28 01:03:37;;;;;;;20.10;9.87;;;10.80;50.00;;;10.85;43.27;95917.16;5067128;28;20474;-57
2022/03/28 01:06:04;;;;;;;12.30;8.80;;;10.70;50.50;;;10.84;43.54;95916.31;5070908;28;20988;-56
2022/03/28 01:08:34;;;;;;;15.40;9.30;;;10.70;50.60;;;10.83;43.90;95922.53;5079721;28;20482;-57
2022/03/28 01:11:03;;;;;;;28.33;9.40;;;10.70;51.10;;;10.80;43.91;95914.03;5063518;28;20596;-56
2022/03/28 01:13:31;;;;;;;11.77;8.27;;;10.70;51.20;;;10.74;43.35;95918.78;5072679;28;20491;-56
2022/03/28 01:15:59;;;;;;;15.50;8.10;;;10.60;50.50;;;10.68;43.24;95916.63;5075346;28;20998;-54
2022/03/28 01:18:26;;;;;;;20.37;8.30;;;10.60;50.60;;;10.60;44.21;95913.75;5061332;28;20493;-56
2022/03/28 01:20:56;;;;;;;16.40;8.93;;;10.50;51.20;;;10.55;43.70;95907.97;5071833;28;20498;-56
2022/03/28 01:23:23;;;;;;;15.27;9.03;;;10.50;50.80;;;10.48;44.07;95907.59;5081740;28;20924;-56
2022/03/28 01:25:51;;;;;;;19.93;9.03;;;10.40;51.30;;;10.42;43.93;95909.84;5068145;28;20955;-55
2022/03/28 01:28:18;;;;;;;24.70;10.13;;;10.30;51.10;;;10.35;44.20;95919.97;5061309;28;20480;-55
2022/03/28 01:30:46;;;;;;;20.17;9.70;;;10.30;51.60;;;10.28;44.79;95916.91;5071431;28;20456;-55
2022/03/28 01:33:13;;;;;;;16.83;9.10;;;10.20;51.90;;;10.25;44.56;95922.38;5068435;28;20536;-56
2022/03/28 01:35:42;;;;;;;21.20;9.90;;;10.20;51.90;;;10.19;44.39;95915.81;5064513;28;20547;-54
2022/03/28 01:38:12;;;;;;;19.00;9.60;;;10.10;51.80;;;10.11;44.54;95909.41;5076264;28;20955;-56
2022/03/28 01:40:42;;;;;;;13.53;9.17;;;10.10;51.80;;;10.01;44.43;95901.38;5068053;28;20462;-56
2022/03/28 01:43:10;;;;;;;14.57;9.50;;;10.00;51.70;;;9.95;44.79;95905.25;5073774;28;20474;-57
2022/03/28 01:45:37;;;;;;;28.13;8.80;;;9.90;52.50;;;9.90;45.10;95909.16;5069516;28;20956;-55
2022/03/28 01:48:05;;;;;;;23.67;9.20;;;9.90;53.00;;;9.86;44.96;95912.00;5070298;28;20487;-55
2022/03/28 01:50:32;;;;;;;18.93;9.63;;;9.80;53.60;;;9.81;45.62;95905.41;5077766;28;20462;-57
2022/03/28 01:53:00;;;;;;;17.73;9.40;;;9.70;53.70;;;9.75;45.54;95908.47;5070321;28;20502;-55
2022/03/28 01:55:28;;;;;;;15.60;9.90;;;9.70;53.30;;;9.71;45.00;95907.84;5061592;28;20467;-56
2022/03/28 01:57:56;;;;;;;17.27;10.60;;;9.60;53.30;;;9.66;45.30;95905.53;5075157;28;20470;-55
2022/03/28 02:00:24;;;;;;;15.80;10.00;;;9.60;53.30;;;9.59;45.41;95906.94;5067366;28;20997;-57
2022/03/28 02:02:52;;;;;;;22.80;9.90;;;9.50;53.60;;;9.57;45.81;95903.56;5074398;28;20601;-57
2022/03/28 02:05:19;;;;;;;36.67;10.90;;;9.50;54.40;;;9.55;45.65;95899.38;5071158;28;20955;-57
2022/03/28 02:07:47;;;;;;;21.10;9.37;;;9.50;54.00;;;9.46;45.95;95901.69;5061679;28;20827;-56
2022/03/28 02:10:16;;;;;;;30.33;9.90;;;9.50;54.80;;;9.47;46.42;95910.44;5075147;28;21082;-55
2022/03/28 02:12:45;;;;;;;15.33;8.80;;;9.40;54.60;;;9.44;45.89;95911.47;5077606;28;20473;-57
2022/03/28 02:15:12;;;;;;;15.20;9.87;;;9.40;54.00;;;9.42;46.18;95908.13;5066157;28;20455;-57
2022/03/28 02:17:40;;;;;;;15.10;9.37;;;9.40;54.60;;;9.39;46.12;95904.84;5073739;28;20562;-57
2022/03/28 02:20:09;;;;;;;33.83;9.83;;;9.30;54.50;;;9.36;45.99;95907.69;5074614;28;20808;-54
2022/03/28 02:22:37;;;;;;;16.77;8.77;;;9.30;54.40;;;9.32;46.57;95907.06;5068606;28;20485;-56
2022/03/28 02:25:06;;;;;;;20.10;9.90;;;9.30;54.70;;;9.29;45.96;95907.28;5072455;28;20457;-58
2022/03/28 02:27:33;;;;;;;19.03;10.80;;;9.20;54.70;;;9.26;45.45;95904.88;5078137;28;20473;-55
2022/03/28 02:30:02;;;;;;;23.30;10.50;;;9.20;54.50;;;9.23;45.93;95903.28;5069202;28;20457;-56
2022/03/28 02:32:29;;;;;;;24.53;11.50;;;9.20;54.00;;;9.18;45.49;95908.03;5070391;28;20475;-55
2022/03/28 02:34:57;;;;;;;18.40;11.57;;;9.20;54.00;;;9.11;45.84;95907.63;5071153;28;20539;-55
2022/03/28 02:37:24;;;;;;;16.10;8.80;;;9.10;54.60;;;9.06;45.82;95901.00;5070636;28;20852;-59
2022/03/28 02:39:52;;;;;;;18.97;9.77;;;9.10;55.00;;;9.03;46.88;95909.06;5076762;28;20518;-56
2022/03/28 02:42:22;;;;;;;20.13;11.03;;;9.00;55.30;;;9.01;46.90;95910.97;5071995;28;20467;-54
2022/03/28 02:44:50;;;;;;;13.57;9.00;;;9.00;55.30;;;8.95;46.54;95913.06;5071576;28;20446;-56
2022/03/28 02:47:19;;;;;;;17.40;9.47;;;8.90;55.60;;;8.91;47.04;95914.22;5078338;28;20546;-57
2022/03/28 02:49:47;;;;;;;22.00;10.67;;;8.90;55.20;;;8.89;47.11;95918.75;5072302;28;20500;-56
2022/03/28 02:52:14;;;;;;;19.00;10.57;;;8.80;55.80;;;8.86;47.26;95918.09;5073652;28;20473;-59
2022/03/28 02:54:41;;;;;;;16.23;10.20;;;8.80;55.90;;;8.85;47.24;95922.50;5073634;28;20495;-54
2022/03/28 02:57:08;;;;;;;23.43;11.10;;;8.80;56.30;;;8.83;46.66;95921.78;5063426;28;20508;-58
2022/03/28 02:59:36;;;;;;;29.90;10.90;;;8.80;55.90;;;8.82;47.42;95922.72;5070061;28;20497;-57
2022/03/28 03:02:03;;;;;;;16.77;10.80;;;8.80;56.40;;;8.81;47.12;95913.16;5074877;28;20482;-58
2022/03/28 03:04:32;;;;;;;18.90;11.03;;;8.70;56.20;;;8.79;47.29;95915.88;5071611;28;20894;-57
2022/03/28 03:06:59;;;;;;;19.60;11.00;;;8.70;56.50;;;8.78;47.58;95915.97;5061780;28;20985;-54
2022/03/28 03:09:27;;;;;;;21.83;11.97;;;8.70;56.30;;;8.75;48.31;95922.28;5070331;28;20454;-55
2022/03/28 03:11:54;;;;;;;21.63;12.27;;;8.70;57.00;;;8.74;47.56;95925.84;5069265;28;20494;-55
2022/03/28 03:14:22;;;;;;;34.93;11.30;;;8.70;56.80;;;8.74;47.55;95927.63;5070397;28;20454;-56
2022/03/28 03:16:49;;;;;;;21.63;12.20;;;8.70;56.80;;;8.71;47.14;95925.22;5073787;28;20558;-56
2022/03/28 03:19:17;;;;;;;17.40;11.23;;;8.70;56.80;;;8.70;47.57;95926.97;5056172;28;21040;-54
2022/03/28 03:21:46;;;;;;;23.43;11.80;;;8.60;56.80;;;8.68;47.38;95928.03;5066568;28;20497;-53
2022/03/28 03:24:13;;;;;;;18.50;11.57;;;8.60;56.50;;;8.66;48.06;95922.03;5061225;28;20470;-56
2022/03/28 03:26:40;;;;;;;177.50;62.70;;;8.60;56.90;;;8.64;48.26;95923.94;5066368;28;20495;-56
2022/03/28 03:29:08;;;;;;;187.30;67.07;;;8.60;57.20;;;8.63;48.58;95933.59;5071830;28;20961;-55
2022/03/28 03:31:35;;;;;;;236.87;83.40;;;8.60;57.60;;;8.61;48.73;95917.97;5062290;28;20463;-56
2022/03/28 03:34:02;;;;;;;96.63;38.77;;;8.60;58.10;;;8.61;49.18;95925.81;5066825;28;20459;-55
2022/03/28 03:36:30;;;;;;;64.30;27.97;;;8.60;58.40;;;8.60;47.83;95937.25;5067287;28;21018;-57
2022/03/28 03:38:59;;;;;;;68.07;28.80;;;8.60;58.10;;;8.59;48.97;95940.81;5068718;28;20932;-56
2022/03/28 03:41:26;;;;;;;55.93;25.93;;;8.60;58.50;;;8.57;48.84;95941.88;5068708;28;20451;-56
2022/03/28 03:43:54;;;;;;;35.53;15.90;;;8.50;58.10;;;8.54;47.93;95940.28;5068373;28;20459;-57
2022/03/28 03:46:21;;;;;;;30.77;11.90;;;8.50;57.50;;;8.53;48.65;95930.72;5066311;28;20463;-55
2022/03/28 03:48:48;;;;;;;33.63;15.30;;;8.50;58.30;;;8.53;49.23;95932.50;5067855;28;20455;-56
2022/03/28 03:51:15;;;;;;;30.33;15.57;;;8.50;59.00;;;8.51;48.46;95939.66;5069438;28;20462;-56
2022/03/28 03:53:43;;;;;;;26.53;13.90;;;8.50;58.20;;;8.50;49.59;95943.19;5071654;28;20446;-56
2022/03/28 03:56:11;;;;;;;27.70;15.40;;;8.50;58.90;;;8.48;48.95;95934.59;5057943;28;20891;-56
2022/03/28 03:58:39;;;;;;;38.13;17.83;;;8.40;58.40;;;8.46;49.12;95936.47;5075309;28;20471;-55
2022/03/28 04:01:08;;;;;;;36.10;19.17;;;8.40;59.00;;;8.41;48.42;95939.34;5068674;28;20482;-55
2022/03/28 04:03:36;;;;;;;31.33;16.30;;;8.40;59.20;;;8.42;49.68;95941.88;5066639;28;20483;-56
2022/03/28 04:06:03;;;;;;;36.37;13.93;;;8.40;59.60;;;8.40;48.57;95943.75;5075575;28;20439;-55
2022/03/28 04:08:30;;;;;;;42.77;13.90;;;8.30;59.00;;;8.36;48.77;95942.28;5071748;28;20967;-54
2022/03/28 04:10:58;;;;;;;36.23;13.90;;;8.30;58.90;;;8.33;49.03;95942.47;5072556;28;20527;-55
2022/03/28 04:13:26;;;;;;;19.67;12.03;;;8.30;59.10;;;8.33;49.31;95941.66;5076466;28;20470;-57
2022/03/28 04:15:54;;;;;;;36.53;12.37;;;8.30;59.10;;;8.31;49.16;95943.53;5062614;28;20451;-57
2022/03/28 04:18:21;;;;;;;29.77;13.40;;;8.20;59.50;;;8.30;49.62;95941.84;5072471;28;20888;-57
2022/03/28 04:20:48;;;;;;;37.23;12.60;;;8.30;60.00;;;8.30;49.24;95939.22;5074250;28;20577;-56
2022/03/28 04:23:16;;;;;;;40.70;14.17;;;8.20;59.70;;;8.30;49.14;95941.84;5070623;28;20708;-57
2022/03/28 04:25:43;;;;;;;26.23;12.30;;;8.20;59.10;;;8.29;50.00;95942.78;5073498;28;20451;-56
2022/03/28 04:28:10;;;;;;;43.50;12.00;;;8.20;60.30;;;8.28;49.72;95948.97;5082082;28;20473;-59
2022/03/28 04:30:39;;;;;;;30.37;12.00;;;8.20;60.40;;;8.23;49.50;95939.63;5071624;28;20454;-56
2022/03/28 04:33:07;;;;;;;21.40;10.37;;;8.20;60.10;;;8.18;50.17;95940.84;5074940;28;20994;-56
2022/03/28 04:35:34;;;;;;;18.83;11.83;;;8.10;60.50;;;8.14;49.99;95940.22;5083716;28;20457;-54
2022/03/28 04:38:04;;;;;;;20.23;11.50;;;8.10;60.70;;;8.14;50.31;95955.09;5070633;28;20462;-56
2022/03/28 04:40:33;;;;;;;34.33;15.23;;;8.10;62.00;;;8.15;51.42;95954.13;5077886;28;21060;-57
2022/03/28 04:43:00;;;;;;;45.23;16.33;;;8.10;63.00;;;8.14;49.71;95953.31;5081020;28;20471;-56
2022/03/28 04:45:28;;;;;;;36.23;15.10;;;8.10;61.50;;;8.13;49.90;95962.09;5073179;28;20457;-57
2022/03/28 04:47:57;;;;;;;57.33;16.60;;;8.10;61.40;;;8.10;50.40;95958.84;5077935;28;20501;-58
2022/03/28 04:50:24;;;;;;;41.87;18.17;;;8.00;61.90;;;8.06;50.15;95968.69;5073966;28;20444;-56
2022/03/28 04:52:51;;;;;;;40.93;15.60;;;8.00;61.90;;;7.98;50.15;95971.78;5070660;28;20466;-56
2022/03/28 04:55:18;;;;;;;26.17;13.77;;;8.00;60.90;;;7.92;50.44;95969.56;5078321;28;20845;-55
2022/03/28 04:57:46;;;;;;;44.63;14.40;;;7.90;61.80;;;7.85;50.38;95961.25;5068100;28;20468;-55
2022/03/28 05:00:14;;;;;;;28.23;13.27;;;7.90;61.60;;;7.82;50.13;95964.06;5074635;28;20494;-56
2022/03/28 05:02:42;;;;;;;36.47;14.80;;;7.80;61.70;;;7.83;49.79;95954.41;5080329;28;20470;-57
2022/03/28 05:05:11;;;;;;;26.67;13.73;;;7.80;61.70;;;7.79;49.87;95961.63;5071496;28;20451;-58
2022/03/28 05:07:38;;;;;;;26.20;12.87;;;7.80;61.40;;;7.75;49.98;95951.44;5075409;28;21006;-57
2022/03/28 05:10:07;;;;;;;18.00;11.83;;;7.80;61.10;;;7.83;49.95;95960.47;5079487;28;20864;-55
2022/03/28 05:12:34;;;;;;;27.57;13.70;;;7.80;61.00;;;8.05;48.90;95961.75;5074273;28;20479;-54
2022/03/28 05:15:01;;;;;;;42.33;15.30;;;8.00;60.70;;;8.22;49.05;95965.91;5075869;28;20498;-54
2022/03/28 05:17:31;;;;;;;27.63;15.30;;;8.20;60.40;;;8.25;48.37;95963.94;5080097;28;20470;-56
2022/03/28 05:19:59;;;;;;;31.43;16.40;;;8.30;59.60;;;8.26;48.85;95962.19;5071404;28;21124;-56
2022/03/28 05:22:27;;;;;;;48.63;18.20;;;8.20;59.30;;;8.28;49.08;95959.47;5074505;28;20478;-57
2022/03/28 05:24:56;;;;;;;32.30;16.70;;;8.30;59.70;;;8.36;48.54;95963.25;5079087;28;20485;-55
2022/03/28 05:27:23;;;;;;;26.93;15.30;;;8.30;59.40;;;8.46;47.29;95958.31;5071464;28;20467;-56
2022/03/28 05:29:51;;;;;;;33.70;16.13;;;8.40;58.50;;;8.49;48.08;95971.22;5076374;28;20446;-55
2022/03/28 05:32:18;;;;;;;27.13;15.40;;;8.50;58.50;;;8.49;47.87;95968.59;5080887;28;21284;-55
2022/03/28 05:34:45;;;;;;;28.53;16.27;;;8.50;58.90;;;8.48;47.31;95961.66;5065918;28;20462;-54
2022/03/28 05:37:13;;;;;;;29.83;16.73;;;8.50;58.40;;;8.50;47.58;95965.00;5078211;28;20473;-57
2022/03/28 05:39:42;;;;;;;25.73;16.00;;;8.50;58.40;;;8.50;47.28;95970.25;5079161;28;20493;-54
2022/03/28 05:42:09;;;;;;;27.17;16.67;;;8.50;58.40;;;8.51;47.60;95963.25;5070248;28;20973;-57
2022/03/28 05:44:37;;;;;;;39.70;17.10;;;8.50;59.00;;;8.54;47.36;95968.28;5076863;28;20466;-56
2022/03/28 05:47:05;;;;;;;48.10;17.53;;;8.50;58.40;;;8.57;48.11;95960.22;5078991;28;20886;-57
2022/03/28 05:49:32;;;;;;;54.80;19.33;;;8.50;58.50;;;8.69;47.67;95969.91;5073528;28;20454;-56
2022/03/28 05:52:00;;;;;;;42.30;18.40;;;8.60;58.80;;;8.84;47.13;95967.19;5077124;28;20462;-55
2022/03/28 05:54:27;;;;;;;33.47;18.00;;;8.80;58.50;;;9.02;47.53;95970.38;5071945;28;20940;-56
2022/03/28 05:56:56;;;;;;;30.20;17.10;;;8.90;58.50;;;9.23;47.34;95974.16;5072181;28;20489;-56
2022/03/28 05:59:23;;;;;;;48.17;18.50;;;9.10;58.30;;;9.47;46.64;95976.06;5074943;28;20446;-56
2022/03/28 06:01:50;;;;;;;26.80;16.47;;;9.30;57.70;;;9.72;45.98;95969.94;5070410;28;20524;-55
2022/03/28 06:04:24;;;;;;;33.83;18.20;;;9.50;57.50;;;9.99;45.87;95977.69;5068224;28;20592;-56
2022/03/28 06:06:51;;;;;;;27.30;17.10;;;9.80;57.10;;;10.26;45.60;95978.47;5078139;28;20487;-56
2022/03/28 06:09:19;;;;;;;29.23;14.97;;;10.00;55.90;;;10.55;45.22;95971.09;5072599;28;20461;-58
2022/03/28 06:11:46;;;;;;;33.03;16.67;;;10.30;55.50;;;10.84;44.85;95968.13;5072789;28;20568;-56
2022/03/28 06:14:15;;;;;;;30.93;15.67;;;10.60;55.80;;;11.13;44.60;95969.38;5079712;28;20457;-57
2022/03/28 06:16:42;;;;;;;24.77;14.83;;;10.90;54.90;;;11.44;44.10;95972.31;5065151;28;20471;-56
2022/03/28 06:19:09;;;;;;;33.90;16.03;;;11.10;54.30;;;11.75;43.99;95967.31;5072951;28;20459;-54
2022/03/28 06:21:36;;;;;;;39.47;15.20;;;11.40;53.90;;;12.09;43.36;95969.13;5079562;28;20854;-57
2022/03/28 06:24:04;;;;;;;22.53;13.87;;;11.70;53.20;;;12.36;43.14;95973.97;5072772;28;20474;-55
2022/03/28 06:26:31;;;;;;;29.87;13.57;;;12.10;53.40;;;12.60;42.61;95965.06;5074705;28;20455;-56
2022/03/28 06:28:59;;;;;;;31.50;16.17;;;12.30;52.60;;;12.86;42.33;95965.56;5081537;28;20455;-53
2022/03/28 06:31:27;;;;;;;26.50;14.40;;;12.50;52.40;;;13.16;41.95;95967.44;5067722;28;20964;-55
2022/03/28 06:34:01;;;;;;;19.43;12.67;;;12.80;52.00;;;13.42;41.77;95970.56;5074705;28;20478;-57
2022/03/28 06:36:30;;;;;;;44.60;13.87;;;13.00;51.50;;;13.70;41.29;95970.84;5079400;28;20442;-58
2022/03/28 06:38:57;;;;;;;25.03;12.73;;;13.30;51.10;;;13.95;40.99;95964.25;5068186;28;20947;-56
2022/03/28 06:41:24;;;;;;;25.03;13.13;;;13.50;51.00;;;14.23;40.96;95961.84;5075316;28;20489;-55
2022/03/28 06:43:52;;;;;;;29.53;13.03;;;13.80;50.70;;;14.55;40.57;95963.44;5075926;28;20881;-56
2022/03/28 06:46:20;;;;;;;26.73;13.27;;;14.10;50.20;;;14.88;39.96;95964.06;5067599;28;20455;-57
2022/03/28 06:48:49;;;;;;;21.53;13.80;;;14.40;49.90;;;15.14;39.73;95969.63;5074928;28;20461;-56
2022/03/28 06:51:17;;;;;;;21.87;12.80;;;14.70;49.00;;;15.25;39.28;95968.63;5074651;28;20702;-56
2022/03/28 06:53:48;;;;;;;34.37;14.83;;;14.90;48.60;;;15.40;39.08;95967.22;5068633;28;20451;-56
2022/03/28 06:56:15;;;;;;;50.77;14.73;;;15.00;48.30;;;15.68;38.93;95964.63;5078382;28;20865;-57
2022/03/28 06:58:43;;;;;;;41.47;14.30;;;15.20;48.50;;;16.02;38.78;95961.47;5075208;28;20482;-56
2022/03/28 07:01:11;;;;;;;31.83;14.83;;;15.50;48.20;;;16.38;38.31;95961.56;5071189;28;21023;-55
2022/03/28 07:03:39;;;;;;;34.40;15.47;;;15.90;48.00;;;16.78;38.20;95965.63;5076554;28;20496;-56
2022/03/28 07:06:08;;;;;;;31.33;17.60;;;16.30;47.70;;;17.22;37.43;95970.19;5067687;28;20539;-56
2022/03/28 07:08:36;;;;;;;31.77;16.73;;;16.70;47.10;;;17.64;37.03;95963.34;5073100;28;20481;-55
2022/03/28 07:11:03;;;;;;;39.40;16.90;;;17.10;46.70;;;17.98;36.58;95968.72;5078182;28;20461;-55
2022/03/28 07:13:30;;;;;;;30.20;15.50;;;17.50;45.30;;;18.19;35.97;95963.00;5069553;28;20471;-57
2022/03/28 07:15:58;;;;;;;32.63;17.50;;;17.70;45.30;;;18.56;36.13;95968.94;5072478;28;20965;-57
2022/03/28 07:18:25;;;;;;;53.97;17.80;;;18.00;45.00;;;18.95;35.52;95969.25;5076209;28;20539;-55
2022/03/28 07:20:52;;;;;;;30.77;15.53;;;18.40;44.80;;;19.34;35.20;95968.59;5071044;28;20495;-55
2022/03/28 07:23:22;;;;;;;46.53;16.30;;;18.80;44.00;;;19.75;34.65;95961.53;5073952;28;20478;-57
2022/03/28 07:25:50;;;;;;;30.13;14.97;;;19.20;43.70;;;20.16;33.56;95956.13;5075829;28;20447;-56
2022/03/28 07:28:18;;;;;;;31.20;16.07;;;19.60;42.80;;;20.56;33.32;95968.47;5063006;28;20993;-55
2022/03/28 07:30:45;;;;;;;25.77;16.07;;;20.00;43.10;;;20.99;32.90;95967.25;5075119;28;21053;-56
2022/03/28 07:33:13;;;;;;;27.67;16.50;;;20.40;42.00;;;21.41;32.43;95966.75;5080381;28;20469;-55
2022/03/28 07:35:40;;;;;;;33.60;17.70;;;20.80;41.50;;;21.87;31.71;95960.47;5071377;28;20514;-56
2022/03/28 07:38:08;;;;;;;27.30;17.07;;;21.30;40.60;;;22.24;31.13;95956.06;5073736;28;20989;-55
2022/03/28 07:40:37;;;;;;;24.20;16.83;;;21.60;39.20;;;22.54;30.84;95964.94;5072950;28;20551;-56
2022/03/28 07:43:05;;;;;;;24.93;14.07;;;21.90;39.10;;;22.85;30.80;95969.22;5069731;28;20505;-56
2022/03/28 07:45:32;;;;;;;32.27;15.03;;;22.20;39.70;;;23.30;30.06;95960.16;5075438;28;20865;-58
2022/03/28 07:47:59;;;;;;;26.67;15.07;;;22.60;39.20;;;23.81;29.53;95962.66;5075911;28;21074;-58
2022/03/28 07:50:27;;;;;;;29.87;15.77;;;23.10;38.50;;;24.10;28.46;95958.13;5068179;28;20457;-55
2022/03/28 07:52:54;;;;;;;29.20;16.97;;;23.60;37.00;;;24.41;28.66;95964.91;5071651;28;20462;-55
2022/03/28 07:55:22;;;;;;;38.60;18.20;;;24.00;36.80;;;24.74;28.80;95957.00;5070910;28;20455;-59
2022/03/28 07:57:50;;;;;;;28.67;17.10;;;24.40;36.90;;;25.16;27.79;95952.34;5069794;28;20535;-57
2022/03/28 08:00:19;;;;;;;27.70;16.77;;;24.80;36.10;;;25.56;27.20;95954.25;5072821;28;20517;-59
2022/03/28 08:02:46;;;;;;;23.00;15.10;;;25.30;35.20;;;25.97;27.71;95955.91;5069200;28;20463;-54
2022/03/28 08:05:13;;;;;;;33.13;15.00;;;25.70;35.50;;;26.41;26.49;95948.13;5075033;28;20460;-56
2022/03/28 08:07:40;;;;;;;16.90;10.90;;;26.20;33.50;;;26.76;26.66;95945.13;5082741;28;20466;-56
2022/03/28 08:10:09;;;;;;;19.33;10.73;;;26.50;34.20;;;27.11;26.38;95940.16;5075324;28;20542;-56
2022/03/28 08:12:37;;;;;;;21.03;12.43;;;26.90;33.90;;;27.48;26.16;95934.94;5076822;28;20539;-57
2022/03/28 08:15:07;;;;;;;19.43;12.37;;;27.20;33.30;;;27.79;25.90;95943.19;5082388;28;21060;-55
2022/03/28 08:17:36;;;;;;;22.83;11.23;;;27.50;33.00;;;27.99;24.80;95940.31;5075008;28;20470;-56
2022/03/28 08:20:03;;;;;;;26.57;11.67;;;27.70;31.40;;;28.09;25.18;95946.06;5071044;28;20985;-56
2022/03/28 08:22:31;;;;;;;17.50;11.03;;;27.90;32.10;;;28.27;25.06;95926.28;5081574;28;20508;-56
2022/03/28 08:24:58;;;;;;;20.87;14.27;;;28.10;31.90;;;28.38;25.09;95930.97;5068656;28;20958;-56
2022/03/28 08:27:26;;;;;;;22.43;12.07;;;28.30;31.60;;;28.57;24.78;95920.13;5077480;28;20570;-57
2022/03/28 08:29:53;;;;;;;16.20;11.37;;;28.50;31.30;;;28.77;24.66;95914.50;5080747;28;20506;-56
2022/03/28 08:32:22;;;;;;;33.43;11.50;;;28.70;30.60;;;28.88;23.42;95911.00;5069008;28;20469;-54
2022/03/28 08:34:50;;;;;;;23.17;12.60;;;28.90;30.00;;;28.90;23.74;95908.88;5078040;28;20454;-57
2022/03/28 08:37:18;;;;;;;19.03;11.40;;;28.90;30.10;;;29.00;24.26;95911.00;5083595;28;20852;-57
2022/03/28 08:39:46;;;;;;;27.17;12.50;;;29.00;30.00;;;29.13;23.32;95907.31;5064348;28;20458;-57
2022/03/28 08:42:14;;;;;;;26.20;11.83;;;29.10;30.00;;;29.10;23.62;95907.75;5078513;28;20585;-57
2022/03/28 08:44:41;;;;;;;39.43;13.17;;;29.10;29.20;;;28.76;23.15;95899.28;5079579;28;20501;-56
2022/03/28 08:47:09;;;;;;;26.07;12.90;;;28.80;29.10;;;28.50;22.92;95895.84;5070583;28;20465;-56
2022/03/28 08:49:38;;;;;;;21.43;12.87;;;28.50;29.00;;;28.39;23.56;95893.91;5080184;28;20446;-57
2022/03/28 08:52:06;;;;;;;24.33;14.63;;;28.20;29.70;;;28.40;23.47;95876.63;5073715;28;20467;-56
2022/03/28 08:54:34;;;;;;;24.37;12.33;;;28.10;29.60;;;28.30;23.68;95884.44;5069020;28;20832;-57
2022/03/28 08:57:01;;;;;;;31.43;14.23;;;28.00;29.80;;;28.39;23.54;95874.97;5077473;28;20466;-55
2022/03/28 08:59:28;;;;;;;22.17;13.30;;;28.00;29.90;;;28.50;23.54;95876.06;5070333;28;20537;-55
2022/03/28 09:01:56;;;;;;;19.87;12.00;;;28.00;29.70;;;28.55;23.10;95876.19;5068330;28;20849;-56
2022/03/28 09:04:23;;;;;;;23.17;12.67;;;28.10;29.80;;;28.61;22.92;95867.19;5077982;28;20473;-57
2022/03/28 09:06:52;;;;;;;23.27;12.10;;;28.10;29.80;;;28.63;23.29;95866.97;5078883;28;20481;-57
2022/03/28 09:09:21;;;;;;;29.77;11.77;;;28.10;29.70;;;28.52;23.01;95861.25;5068790;28;20466;-56
2022/03/28 09:11:51;;;;;;;18.50;12.40;;;28.10;29.50;;;28.29;23.29;95863.84;5082431;28;20484;-57
2022/03/28 09:14:27;;;;;;;20.33;12.03;;;27.90;29.40;;;28.04;23.09;95852.06;5072730;28;20469;-57
2022/03/28 09:17:05;;;;;;;21.03;11.53;;;27.70;29.40;;;27.81;23.39;95858.13;5076559;28;20465;-56
2022/03/28 09:19:47;;;;;;;22.13;11.70;;;27.50;29.90;;;27.66;23.75;95847.66;5079636;28;20549;-56
2022/03/28 09:22:16;;;;;;;18.80;12.37;;;27.30;30.00;;;27.54;24.02;95842.16;5069536;28;20497;-55
2022/03/28 09:24:45;;;;;;;21.73;11.77;;;27.10;30.10;;;27.35;24.06;95845.88;5063975;28;20452;-56
2022/03/28 09:27:17;;;;;;;31.43;12.70;;;27.00;30.10;;;27.06;23.96;95844.63;5082883;28;20476;-57
2022/03/28 09:30:03;;;;;;;17.50;11.10;;;26.70;30.30;;;26.70;24.42;95841.53;5070692;28;20852;-56
2022/03/28 09:32:31;;;;;;;21.87;12.47;;;26.40;30.20;;;26.34;24.50;95836.75;5077893;28;20477;-56
2022/03/28 09:35:08;;;;;;;20.10;12.07;;;26.10;30.40;;;26.11;25.11;95825.44;5074749;28;20451;-58
2022/03/28 09:37:51;;;;;;;22.83;12.20;;;25.80;30.80;;;26.07;24.44;95821.53;5073596;28;21077;-57
2022/03/28 09:40:31;;;;;;;29.80;13.67;;;25.70;31.20;;;25.94;24.46;95813.44;5075033;28;21022;-57
2022/03/28 09:42:58;;;;;;;24.03;12.30;;;25.60;31.20;;;26.01;24.77;95811.59;5067014;28;20492;-55
2022/03/28 09:45:26;;;;;;;18.00;11.93;;;25.50;31.60;;;26.27;24.86;95807.09;5074341;28;20454;-59
2022/03/28 09:48:01;;;;;;;30.23;13.60;;;25.70;31.60;;;26.49;24.92;95796.78;5082054;28;20464;-56
2022/03/28 09:50:37;;;;;;;20.63;11.50;;;25.90;31.50;;;26.69;24.45;95794.00;5073416;28;20516;-57
2022/03/28 09:53:22;;;;;;;26.53;13.43;;;26.10;31.00;;;26.94;23.88;95794.03;5068412;28;20466;-56
2022/03/28 09:55:56;;;;;;;17.43;11.77;;;26.30;31.10;;;27.20;24.30;95792.13;5074968;28;21190;-57
2022/03/28 09:58:42;;;;;;;32.47;15.07;;;26.60;31.00;;;27.44;23.20;95782.41;5071766;28;20496;-56
2022/03/28 10:01:15;;;;;;;26.00;13.33;;;26.80;29.90;;;27.54;23.62;95771.06;5076374;28;21031;-55
2022/03/28 10:03:44;;;;;;;23.90;14.50;;;27.00;30.30;;;27.79;23.92;95773.69;5076835;28;20923;-56
2022/03/28 10:06:11;;;;;;;27.87;14.67;;;27.20;30.00;;;27.93;23.05;95765.41;5070233;28;20511;-57
2022/03/28 10:08:40;;;;;;;25.20;15.17;;;27.30;29.50;;;27.88;23.33;95766.09;5079486;28;20475;-59
2022/03/28 10:11:08;;;;;;;37.43;14.00;;;27.30;29.50;;;27.53;23.13;95756.72;5066290;28;20546;-57
2022/03/28 10:13:35;;;;;;;19.10;13.40;;;27.10;29.30;;;27.28;23.66;95756.75;5074488;28;20463;-57
2022/03/28 10:16:03;;;;;;;25.90;14.23;;;26.80;29.70;;;27.22;23.64;95744.16;5077292;28;20530;-56
2022/03/28 10:18:30;;;;;;;32.53;14.37;;;26.70;30.00;;;27.11;23.82;95745.72;5070774;28;20560;-55